createdAt,value
2022-09-05T00:01:58.958Z,47.36
2022-09-05T00:04:28.971Z,47.45
2022-09-05T00:07:02.777Z,47.49
2022-09-05T00:09:53.084Z,47.39
2022-09-05T00:12:20.503Z,47.32
2022-09-05T00:15:17.757Z,47.35
2022-09-05T00:19:16.179Z,47.46
2022-09-05T00:24:20.673Z,47.41
2022-09-05T00:24:32.022Z,47.24
2022-09-05T00:26:28.835Z,47.22
2022-09-05T00:28:58.419Z,47.34
2022-09-05T00:31:54.978Z,47.24
2022-09-05T00:34:37.770Z,47.40
2022-09-05T00:37:26.269Z,47.05
2022-09-05T00:40:00.826Z,47.08
2022-09-05T00:42:42.619Z,46.97
2022-09-05T00:45:19.598Z,47.08
2022-09-05T00:47:48.593Z,47.08
2022-09-05T00:50:18.305Z,46.83
2022-09-05T00:53:04.996Z,46.79
2022-09-05T00:55:38.684Z,46.81
2022-09-05T00:58:12.355Z,46.83
2022-09-05T01:00:46.193Z,46.84
2022-09-05T01:03:34.451Z,47.04
2022-09-05T01:06:14.712Z,46.73
2022-09-05T01:08:49.831Z,46.69
2022-09-05T01:11:21.160Z,46.92
2022-09-05T01:13:51.239Z,46.91
2022-09-05T01:16:23.363Z,47.03
2022-09-05T01:19:00.395Z,46.83
2022-09-05T01:21:55.369Z,46.76
2022-09-05T01:24:50.496Z,46.87
2022-09-05T01:28:21.703Z,47.05
2022-09-05T01:30:32.152Z,46.98
2022-09-05T01:33:06.016Z,46.82
2022-09-05T01:36:04.265Z,46.81
2022-09-05T01:38:35.640Z,46.66
2022-09-05T01:41:19.170Z,46.79
2022-09-05T01:43:58.977Z,46.78
2022-09-05T01:46:32.198Z,46.90
2022-09-05T01:49:03.284Z,46.91
2022-09-05T01:51:35.936Z,46.91
2022-09-05T01:54:24.208Z,46.79
2022-09-05T01:57:02.867Z,46.60
2022-09-05T01:59:39.621Z,46.86
2022-09-05T02:02:27.578Z,46.80
2022-09-05T02:05:04.543Z,46.56
2022-09-05T02:07:38.063Z,46.66
2022-09-05T02:10:35.768Z,46.66
2022-09-05T02:13:13.851Z,46.66
2022-09-05T02:15:52.304Z,46.70
2022-09-05T02:18:30.152Z,46.79
2022-09-05T02:20:58.827Z,46.62
2022-09-05T02:23:41.649Z,46.65
2022-09-05T02:26:13.358Z,46.72
2022-09-05T02:28:44.788Z,46.61
2022-09-05T02:31:20.022Z,46.65
2022-09-05T02:33:49.421Z,46.61
2022-09-05T02:36:22.577Z,46.54
2022-09-05T02:42:41.829Z,46.68
2022-09-05T02:45:08.058Z,46.62
2022-09-05T02:45:19.571Z,46.57
2022-09-05T02:47:22.555Z,46.66
2022-09-05T02:51:02.541Z,46.56
2022-09-05T02:57:33.269Z,46.40
2022-09-05T02:57:34.041Z,46.64
2022-09-05T02:58:53.268Z,46.38
2022-09-05T03:01:24.037Z,46.60
2022-09-05T03:03:55.610Z,46.55
2022-09-05T03:06:35.049Z,46.39
2022-09-05T03:09:17.000Z,46.65
2022-09-05T03:12:33.241Z,46.59
2022-09-05T03:15:24.594Z,46.70
2022-09-05T03:18:20.981Z,46.57
2022-09-05T03:21:18.623Z,46.68
2022-09-05T03:24:06.356Z,46.68
2022-09-05T03:26:48.832Z,46.69
2022-09-05T03:29:35.724Z,46.59
2022-09-05T03:32:19.545Z,46.61
2022-09-05T03:35:23.739Z,46.82
2022-09-05T03:38:06.031Z,46.65
2022-09-05T03:40:50.328Z,46.73
2022-09-05T03:43:32.242Z,46.61
2022-09-05T03:46:08.201Z,46.54
2022-09-05T03:48:49.072Z,46.60
2022-09-05T03:57:14.630Z,46.70
2022-09-05T03:57:23.099Z,46.59
2022-09-05T03:57:41.820Z,46.62
2022-09-05T04:00:11.364Z,46.51
2022-09-05T04:08:11.550Z,46.56
2022-09-05T04:08:24.042Z,46.68
2022-09-05T04:08:34.059Z,46.45
2022-09-05T04:11:06.805Z,46.45
2022-09-05T04:13:36.176Z,46.56
2022-09-05T04:16:07.821Z,46.62
2022-09-05T04:18:37.881Z,46.63
2022-09-05T04:21:08.017Z,46.64
2022-09-05T04:23:37.806Z,46.37
2022-09-05T04:26:13.075Z,46.48
2022-09-05T04:29:02.634Z,46.73
2022-09-05T04:31:35.749Z,46.59
2022-09-05T04:34:17.093Z,46.61
2022-09-05T04:36:44.756Z,46.52
2022-09-05T04:39:25.725Z,46.51
2022-09-05T04:41:55.179Z,46.53
2022-09-05T04:44:26.593Z,46.61
2022-09-05T04:46:55.273Z,46.81
2022-09-05T04:49:24.522Z,47.09
2022-09-05T04:52:31.106Z,46.95
2022-09-05T04:55:01.611Z,47.02
2022-09-05T04:57:34.092Z,46.99
2022-09-05T05:02:59.683Z,46.96
2022-09-05T05:06:14.278Z,46.82
2022-09-05T05:06:17.936Z,46.54
2022-09-05T05:08:42.011Z,46.85
2022-09-05T05:16:57.981Z,46.83
2022-09-05T05:18:08.470Z,46.84
2022-09-05T05:18:13.398Z,47.05
2022-09-05T05:19:40.378Z,46.89
2022-09-05T05:22:14.359Z,47.25
2022-09-05T05:24:43.595Z,47.23
2022-09-05T05:27:13.074Z,47.44
2022-09-05T05:29:45.923Z,47.40
2022-09-05T05:32:19.417Z,47.38
2022-09-05T05:35:00.125Z,47.55
2022-09-05T05:37:29.720Z,47.46
2022-09-05T05:40:01.758Z,47.39
2022-09-05T05:42:29.246Z,47.00
2022-09-05T05:44:58.684Z,46.94
2022-09-05T05:47:32.210Z,46.63
2022-09-05T05:50:02.028Z,46.78
2022-09-05T05:52:37.782Z,46.66
2022-09-05T05:55:08.222Z,46.90
2022-09-05T05:58:04.995Z,46.51
2022-09-05T06:00:41.338Z,46.40
2022-09-05T06:04:11.024Z,46.89
2022-09-05T06:06:42.129Z,46.72
2022-09-05T06:14:53.092Z,46.85
2022-09-05T06:15:02.197Z,46.83
2022-09-05T06:16:13.466Z,46.78
2022-09-05T06:19:13.378Z,47.07
2022-09-05T06:22:11.590Z,47.00
2022-09-05T06:25:16.753Z,46.94
2022-09-05T06:28:17.308Z,46.86
2022-09-05T06:30:41.577Z,46.87
2022-09-05T06:33:16.572Z,46.83
2022-09-05T06:36:01.211Z,46.94
2022-09-05T06:38:45.878Z,46.92
2022-09-05T06:41:21.175Z,46.81
2022-09-05T06:44:12.708Z,46.78
2022-09-05T06:46:55.084Z,46.86
2022-09-05T06:49:38.672Z,46.88
2022-09-05T06:52:29.222Z,46.90
2022-09-05T06:55:24.743Z,46.76
2022-09-05T06:58:22.764Z,46.86
2022-09-05T07:00:50.361Z,46.85
2022-09-05T07:03:34.167Z,46.96
2022-09-05T07:06:07.542Z,46.96
2022-09-05T07:08:44.305Z,47.01
2022-09-05T07:11:16.616Z,47.01
2022-09-05T07:13:51.267Z,46.96
2022-09-05T07:16:37.992Z,46.88
2022-09-05T07:19:14.195Z,47.06
2022-09-05T07:21:44.418Z,46.92
2022-09-05T07:24:13.345Z,47.07
2022-09-05T07:26:52.290Z,47.07
2022-09-05T07:29:24.228Z,46.92
2022-09-05T07:31:53.894Z,47.03
2022-09-05T07:34:23.584Z,46.88
2022-09-05T07:37:15.474Z,46.65
2022-09-05T07:39:45.501Z,46.52
2022-09-05T07:42:15.812Z,46.47
2022-09-05T07:44:46.278Z,46.31
2022-09-05T07:47:17.752Z,46.22
2022-09-05T07:49:51.907Z,46.47
2022-09-05T07:56:52.162Z,46.60
2022-09-05T07:56:55.562Z,46.58
2022-09-05T07:58:14.704Z,46.54
2022-09-05T08:00:42.718Z,46.61
2022-09-05T08:03:10.940Z,46.73
2022-09-05T08:05:40.623Z,46.67
2022-09-05T08:08:10.861Z,46.48
2022-09-05T08:11:22.233Z,46.65
2022-09-05T08:13:42.411Z,46.57
2022-09-05T08:16:14.584Z,46.76
2022-09-05T08:18:45.091Z,46.62
2022-09-05T08:21:13.393Z,46.48
2022-09-05T08:23:49.479Z,46.61
2022-09-05T08:26:17.715Z,46.45
2022-09-05T08:28:53.483Z,46.50
2022-09-05T08:31:22.080Z,46.52
2022-09-05T08:33:49.524Z,47.08
2022-09-05T08:36:20.796Z,46.95
2022-09-05T08:38:50.990Z,46.95
2022-09-05T08:41:23.719Z,46.69
2022-09-05T08:46:37.064Z,46.56
2022-09-05T08:47:02.268Z,46.37
2022-09-05T08:49:36.992Z,46.44
2022-09-05T08:52:07.602Z,46.57
2022-09-05T08:54:38.363Z,46.52
2022-09-05T08:57:11.539Z,46.62
2022-09-05T09:00:18.827Z,46.66
2022-09-05T09:02:50.526Z,46.59
2022-09-05T09:05:23.293Z,46.61
2022-09-05T09:07:54.904Z,46.73
2022-09-05T09:10:34.820Z,46.69
2022-09-05T09:13:11.960Z,46.71
2022-09-05T09:15:39.827Z,46.58
2022-09-05T09:18:12.120Z,46.63
2022-09-05T09:20:52.796Z,46.71
2022-09-05T09:23:42.435Z,46.69
2022-09-05T09:26:15.750Z,47.94
2022-09-05T09:28:47.773Z,46.98
2022-09-05T09:31:31.995Z,46.98
2022-09-05T09:34:07.040Z,47.00
2022-09-05T09:36:43.802Z,47.13
2022-09-05T09:39:39.022Z,47.14
2022-09-05T09:42:33.400Z,47.05
2022-09-05T09:45:23.591Z,47.20
2022-09-05T09:48:25.015Z,47.17
2022-09-05T09:51:19.185Z,47.04
2022-09-05T09:53:53.225Z,47.54
2022-09-05T09:56:54.886Z,47.34
2022-09-05T09:59:29.683Z,47.36
2022-09-05T10:04:31.359Z,47.44
2022-09-05T10:10:39.789Z,47.50
2022-09-05T10:10:44.345Z,47.74
2022-09-05T10:11:55.867Z,47.60
2022-09-05T10:14:49.827Z,47.82
2022-09-05T10:17:43.496Z,48.05
2022-09-05T10:20:17.971Z,47.84
2022-09-05T10:22:57.925Z,48.03
2022-09-05T10:25:33.348Z,47.91
2022-09-05T10:28:07.867Z,47.88
2022-09-05T10:32:13.575Z,47.87
2022-09-05T10:35:14.035Z,48.00
2022-09-05T10:36:27.138Z,47.92
2022-09-05T10:39:01.712Z,47.91
2022-09-05T10:41:39.416Z,48.06
2022-09-05T10:44:06.863Z,47.96
2022-09-05T10:46:51.039Z,48.00
2022-09-05T10:49:21.672Z,48.02
2022-09-05T10:51:53.665Z,47.96
2022-09-05T10:54:30.077Z,48.15
2022-09-05T10:57:01.787Z,47.88
2022-09-05T11:02:18.999Z,47.80
2022-09-05T11:02:34.613Z,47.89
2022-09-05T11:05:07.309Z,48.00
2022-09-05T11:07:39.220Z,48.04
2022-09-05T11:10:11.505Z,47.99
2022-09-05T11:12:50.414Z,48.00
2022-09-05T11:15:30.585Z,48.12
2022-09-05T11:18:03.758Z,48.12
2022-09-05T11:20:48.213Z,48.28
2022-09-05T11:23:18.524Z,48.18
2022-09-05T11:25:46.243Z,47.99
2022-09-05T11:28:16.086Z,48.15
2022-09-05T11:30:44.653Z,48.12
2022-09-05T11:39:46.454Z,48.08
2022-09-05T11:39:55.602Z,48.03
2022-09-05T11:40:07.752Z,48.23
2022-09-05T11:42:15.242Z,48.14
2022-09-05T11:44:53.413Z,48.17
2022-09-05T11:47:51.013Z,47.77
2022-09-05T11:50:42.223Z,48.12
2022-09-05T11:53:34.878Z,48.19
2022-09-05T11:56:13.979Z,48.23
2022-09-05T11:58:51.052Z,48.27
2022-09-05T12:01:42.260Z,48.29
2022-09-05T12:04:28.722Z,48.50
2022-09-05T12:07:37.236Z,48.20
2022-09-05T12:10:46.863Z,48.26
2022-09-05T12:13:17.121Z,48.12
2022-09-05T12:15:53.457Z,48.40
2022-09-05T12:18:35.585Z,48.29
2022-09-05T12:21:19.659Z,48.41
2022-09-05T12:24:35.388Z,48.44
2022-09-05T12:27:40.298Z,48.42
2022-09-05T12:29:37.449Z,48.50
2022-09-05T12:33:58.268Z,48.55
2022-09-05T12:36:08.895Z,48.59
2022-09-05T12:40:58.415Z,48.71
2022-09-05T12:41:37.138Z,48.59
2022-09-05T12:44:39.477Z,48.51
2022-09-05T12:46:24.254Z,48.44
2022-09-05T12:48:54.207Z,48.45
2022-09-05T12:51:46.773Z,48.18
2022-09-05T12:54:32.764Z,48.34
2022-09-05T13:01:19.035Z,48.40
2022-09-05T13:03:05.819Z,48.28
2022-09-05T13:03:12.213Z,48.49
2022-09-05T13:05:46.812Z,48.37
2022-09-05T13:08:21.459Z,48.53
2022-09-05T13:14:49.399Z,48.27
2022-09-05T13:15:01.574Z,48.57
2022-09-05T13:16:33.953Z,48.36
2022-09-05T13:19:07.516Z,48.38
2022-09-05T13:21:36.690Z,48.43
2022-09-05T13:24:09.945Z,48.30
2022-09-05T13:26:39.979Z,48.18
2022-09-05T13:29:13.052Z,48.42
2022-09-05T13:38:00.837Z,48.17
2022-09-05T13:38:08.308Z,48.28
2022-09-05T13:38:20.930Z,48.00
2022-09-05T13:40:34.516Z,48.49
2022-09-05T13:43:08.420Z,48.59
2022-09-05T13:45:55.959Z,48.48
2022-09-05T13:51:34.045Z,48.56
2022-09-05T13:54:51.392Z,48.40
2022-09-05T13:57:41.398Z,48.69
2022-09-05T14:00:42.172Z,48.63
2022-09-05T14:03:50.279Z,48.49
2022-09-05T14:06:47.007Z,48.55
2022-09-05T14:09:49.182Z,48.49
2022-09-05T14:12:30.587Z,48.55
2022-09-05T14:15:09.645Z,48.52
2022-09-05T14:18:02.267Z,48.59
2022-09-05T14:21:08.717Z,48.72
2022-09-05T14:23:50.470Z,48.54
2022-09-05T14:26:20.962Z,48.56
2022-09-05T14:29:16.015Z,48.68
2022-09-05T14:37:43.233Z,48.58
2022-09-05T14:37:55.080Z,48.65
2022-09-05T14:38:07.883Z,48.75
2022-09-05T14:41:25.129Z,48.63
2022-09-05T14:44:27.627Z,48.80
2022-09-05T14:47:37.599Z,48.70
2022-09-05T14:50:49.538Z,48.76
2022-09-05T14:57:23.668Z,48.84
2022-09-05T15:02:43.268Z,48.76
2022-09-05T15:02:54.231Z,48.81
2022-09-05T15:05:11.784Z,49.07
2022-09-05T15:09:28.630Z,48.96
2022-09-05T15:12:21.501Z,49.14
2022-09-05T15:14:04.238Z,48.96
2022-09-05T15:16:45.520Z,48.94
2022-09-05T15:19:14.787Z,49.02
2022-09-05T15:21:54.368Z,48.98
2022-09-05T15:24:35.221Z,49.04
2022-09-05T15:27:23.353Z,49.06
2022-09-05T15:30:20.936Z,49.06
2022-09-05T15:40:35.374Z,49.31
2022-09-05T15:43:30.622Z,49.16
2022-09-05T15:50:26.275Z,50.30
2022-09-05T15:56:33.370Z,50.05
2022-09-05T15:59:04.073Z,49.97
2022-09-05T16:02:00.295Z,50.05
2022-09-05T16:10:29.367Z,50.14
2022-09-05T16:10:34.370Z,50.29
2022-09-05T16:13:51.983Z,49.56
2022-09-05T16:22:58.255Z,49.61
2022-09-05T16:23:33.473Z,49.54
2022-09-05T16:23:33.604Z,49.56
2022-09-05T16:24:59.378Z,49.62
2022-09-05T16:27:54.256Z,49.57
2022-09-05T16:30:28.740Z,49.71
2022-09-05T16:33:02.483Z,49.53
2022-09-05T16:35:48.902Z,49.53
2022-09-05T16:38:25.805Z,49.64
2022-09-05T16:41:08.823Z,49.67
2022-09-05T16:43:50.749Z,49.75
2022-09-05T16:46:21.306Z,49.80
2022-09-05T16:48:54.799Z,49.69
2022-09-05T16:51:36.296Z,49.91
2022-09-05T16:54:11.197Z,50.00
2022-09-05T16:56:41.148Z,50.00
2022-09-05T16:59:10.712Z,49.82
2022-09-05T17:02:06.106Z,49.84
2022-09-05T17:04:43.313Z,49.85
2022-09-05T17:07:51.554Z,53.06
2022-09-05T17:10:34.605Z,54.14
2022-09-05T17:13:02.060Z,54.12
2022-09-05T17:15:51.476Z,54.84
2022-09-05T17:18:25.911Z,54.63
2022-09-05T17:20:55.919Z,55.24
2022-09-05T17:25:40.091Z,55.26
2022-09-05T17:29:30.091Z,56.17
2022-09-05T17:32:41.756Z,55.56
2022-09-05T17:35:17.309Z,56.71
2022-09-05T17:38:18.792Z,56.05
2022-09-05T17:41:16.187Z,55.65
2022-09-05T17:43:43.661Z,54.94
2022-09-05T17:46:20.083Z,54.60
2022-09-05T17:49:19.497Z,54.64
2022-09-05T17:52:33.946Z,54.12
2022-09-05T17:55:13.587Z,53.92
2022-09-05T17:57:45.122Z,53.69
2022-09-05T18:01:01.074Z,53.62
2022-09-05T18:04:16.221Z,53.32
2022-09-05T18:10:03.553Z,53.38
2022-09-05T18:13:12.853Z,53.32
2022-09-05T18:16:13.299Z,53.08
2022-09-05T18:19:27.961Z,53.02
2022-09-05T18:25:30.842Z,52.98
2022-09-05T18:28:09.559Z,52.76
2022-09-05T18:30:49.720Z,52.82
2022-09-05T18:33:55.007Z,52.72
2022-09-05T18:36:34.430Z,52.81
2022-09-05T18:39:42.620Z,54.17
2022-09-05T18:42:33.599Z,53.62
2022-09-05T18:45:14.572Z,53.76
2022-09-05T18:47:51.094Z,53.76
2022-09-05T18:50:27.434Z,54.31
2022-09-05T18:53:10.480Z,54.02
2022-09-05T18:56:13.054Z,53.86
2022-09-05T18:58:51.976Z,54.01
2022-09-05T19:01:35.762Z,53.69
2022-09-05T19:04:06.436Z,53.96
2022-09-05T19:06:37.988Z,54.20
2022-09-05T19:09:08.400Z,54.65
2022-09-05T19:11:52.091Z,55.01
2022-09-05T19:14:41.997Z,55.04
2022-09-05T19:17:16.957Z,55.19
2022-09-05T19:20:31.994Z,55.49
2022-09-05T19:23:10.119Z,55.38
2022-09-05T19:25:41.240Z,55.46
2022-09-05T19:36:48.994Z,56.46
2022-09-05T19:36:52.296Z,56.13
2022-09-05T19:36:55.591Z,56.64
2022-09-05T19:37:07.768Z,56.39
2022-09-05T19:47:30.478Z,56.97
2022-09-05T19:47:34.473Z,56.88
2022-09-05T19:47:43.034Z,56.98
2022-09-05T19:49:08.526Z,57.06
2022-09-05T19:51:41.042Z,58.46
2022-09-05T19:58:34.086Z,58.16
2022-09-05T20:01:05.796Z,58.63
2022-09-05T20:03:38.270Z,58.18
2022-09-05T20:06:29.357Z,58.19
2022-09-05T20:09:14.237Z,58.43
2022-09-05T20:11:56.976Z,58.27
2022-09-05T20:14:29.025Z,58.47
2022-09-05T20:17:18.103Z,58.36
2022-09-05T20:19:45.866Z,58.31
2022-09-05T20:22:46.794Z,58.49
2022-09-05T20:25:19.847Z,58.66
2022-09-05T20:28:07.115Z,58.37
2022-09-05T20:30:56.108Z,58.68
2022-09-05T20:33:27.101Z,58.51
2022-09-05T20:43:09.667Z,58.58
2022-09-05T20:43:17.746Z,58.66
2022-09-05T20:43:36.696Z,58.58
2022-09-05T20:44:51.758Z,58.90
2022-09-05T20:51:27.942Z,58.69
2022-09-05T20:54:14.518Z,58.93
2022-09-05T20:54:17.177Z,58.82
2022-09-05T20:56:02.095Z,58.82
2022-09-05T20:58:32.208Z,58.85
2022-09-05T21:01:37.810Z,58.86
2022-09-05T21:04:08.889Z,59.01
2022-09-05T21:06:36.558Z,59.40
2022-09-05T21:09:24.255Z,59.25
2022-09-05T21:11:53.057Z,59.41
2022-09-05T21:14:21.115Z,59.29
2022-09-05T21:17:15.615Z,59.64
2022-09-05T21:19:53.804Z,59.86
2022-09-05T21:22:43.422Z,59.90
2022-09-05T21:25:25.992Z,60.00
2022-09-05T21:28:32.631Z,60.09
2022-09-05T21:31:15.162Z,60.25
2022-09-05T21:34:04.170Z,60.31
2022-09-05T21:36:35.398Z,60.19
2022-09-05T21:39:02.908Z,60.35
2022-09-05T21:41:33.613Z,60.45
2022-09-05T21:47:38.861Z,60.73
2022-09-05T21:47:52.122Z,60.48
2022-09-05T21:50:31.232Z,60.71
2022-09-05T21:54:35.209Z,60.61
2022-09-05T21:59:17.319Z,60.70
2022-09-05T22:01:50.915Z,60.92
2022-09-05T22:04:23.665Z,61.26
2022-09-05T22:06:59.802Z,61.45
2022-09-05T22:09:36.143Z,62.04
2022-09-05T22:12:28.274Z,62.31
2022-09-05T22:15:28.862Z,62.59
2022-09-05T22:18:17.020Z,62.67
2022-09-05T22:21:33.003Z,62.62
2022-09-05T22:23:59.819Z,62.22
2022-09-05T22:26:29.146Z,62.55
2022-09-05T22:28:56.756Z,62.05
2022-09-05T22:34:45.555Z,62.55
2022-09-05T22:37:16.210Z,61.60
2022-09-05T22:39:53.059Z,62.07
2022-09-05T22:42:27.571Z,61.92
2022-09-05T22:45:03.467Z,62.12
2022-09-05T22:47:38.689Z,61.77
2022-09-05T22:50:06.866Z,61.81
2022-09-05T22:52:34.314Z,61.74
2022-09-05T22:55:16.727Z,62.05
2022-09-05T22:57:53.572Z,62.07
2022-09-05T23:00:26.822Z,62.10
2022-09-05T23:02:57.465Z,61.92
2022-09-05T23:05:46.029Z,61.79
2022-09-05T23:08:13.485Z,61.92
2022-09-05T23:10:43.818Z,61.56
2022-09-05T23:13:12.638Z,61.94
2022-09-05T23:15:50.717Z,61.73
2022-09-05T23:18:18.268Z,61.32
2022-09-05T23:21:05.948Z,61.20
2022-09-05T23:23:39.689Z,61.27
2022-09-05T23:26:09.506Z,60.90
2022-09-05T23:28:42.696Z,61.03
2022-09-05T23:31:10.824Z,61.01
2022-09-05T23:33:38.337Z,61.29
2022-09-05T23:36:06.970Z,61.29
2022-09-05T23:38:42.137Z,61.31
2022-09-05T23:41:10.373Z,60.99
2022-09-05T23:43:42.202Z,60.89
2022-09-05T23:46:09.740Z,60.84
2022-09-05T23:48:37.312Z,60.69
2022-09-05T23:51:06.080Z,60.54
2022-09-05T23:53:33.541Z,60.82
2022-09-05T23:56:02.594Z,60.56
2022-09-05T23:58:32.791Z,60.38
